Dickinson Theodore Roosevelt Regional Airport Dickinson US
ICAO: KDIK
IATA: DIK
Category: Medium
Scheduled Services: No

Elevation: 2592 ft
TransAlt. 18000 ft.

Airport Communications:
MINNEAPOLIS CNTR:124.25
GRAND FORKS RDO:122.2
CTAF/UNICOM:123

KDIK Zoom In..

Runways:

(A) RW 07 length 4699 ft width 75 ft
---- / hdg 70

(B) RW 14 length 6399 ft width 100 ft
---- / hdg 140

(C) RW 25 length 4699 ft width 75 ft
---- / hdg 250

(D) RW 32 length 6399 ft width 100 ft
ILS 108.30 / hdg 320

Location; KDIK
Day. 07 / Time. 18.56 Zulu
* Altimeter: 29.68
* Temperature: 16° c. 60.8°f.
* Wind from: 310° Speed 18 kn with Gusts up to 27 kn.
Dewpoint: -03° c.
Visibility: 10 Statute Miles.
Clouds: Clear (automated report).

KDIK 071856Z AUTO 31018G27KT 10SM CLR 16/M03 A2968 RMK AO2 PK WND 31030/1827 SLP055 T01561033


Wind From 310°
Speed 18 kn.

 
 
jpsmedia worldairports.se 2020   terms of use